createdAt,value
2022-09-07T00:04:06.141Z,1019.4
2022-09-07T00:09:54.329Z,1019.3
2022-09-07T00:15:23.054Z,1019.4
2022-09-07T00:20:43.484Z,1019.5
2022-09-07T00:26:27.510Z,1019.5
2022-09-07T00:31:58.465Z,1019.5
2022-09-07T00:37:36.113Z,1019.7
2022-09-07T00:43:14.110Z,1019.7
2022-09-07T00:48:29.106Z,1019.6
2022-09-07T00:54:07.907Z,1019.7
2022-09-07T00:59:39.651Z,1019.5
2022-09-07T01:05:37.710Z,1019.2
2022-09-07T01:10:53.575Z,1019.3
2022-09-07T01:16:30.420Z,1019.3
2022-09-07T01:22:15.014Z,1019.4
2022-09-07T01:27:35.042Z,1019.4
2022-09-07T01:33:24.135Z,1019.6
2022-09-07T01:38:40.297Z,1019.6
2022-09-07T01:44:34.683Z,1019.5
2022-09-07T01:49:52.049Z,1019.5
2022-09-07T01:55:24.282Z,1019.6
2022-09-07T02:01:19.298Z,1019.6
2022-09-07T02:06:44.019Z,1019.5
2022-09-07T02:12:18.557Z,1019.7
2022-09-07T02:17:42.540Z,1019.8
2022-09-07T02:23:20.020Z,1019.7
2022-09-07T02:28:51.831Z,1019.7
2022-09-07T02:34:33.346Z,1019.5
2022-09-07T02:40:10.988Z,1019.4
2022-09-07T02:45:36.593Z,1019.3
2022-09-07T02:51:35.731Z,1019.4
2022-09-07T02:56:53.339Z,1019.4
2022-09-07T03:02:18.411Z,1019.5
2022-09-07T03:07:58.065Z,1019.3
2022-09-07T03:13:28.188Z,1019.4
2022-09-07T03:19:12.913Z,1019.5
2022-09-07T03:24:41.811Z,1019.6
2022-09-07T03:30:24.254Z,1019.6
2022-09-07T03:35:43.387Z,1019.5
2022-09-07T03:41:39.414Z,1019.6
2022-09-07T03:47:11.779Z,1019.6
2022-09-07T03:52:46.491Z,1019.5
2022-09-07T03:58:22.393Z,1019.4
2022-09-07T04:03:50.094Z,1019.4
2022-09-07T04:09:11.801Z,1019.6
2022-09-07T04:14:46.286Z,1019.6
2022-09-07T04:20:31.688Z,1019.5
2022-09-07T04:25:47.803Z,1019.5
2022-09-07T04:31:30.184Z,1019.6
2022-09-07T04:37:09.629Z,1019.5
2022-09-07T04:42:38.571Z,1019.6
2022-09-07T04:48:28.312Z,1019.4
2022-09-07T04:53:43.602Z,1019.4
2022-09-07T04:59:21.268Z,1019.5
2022-09-07T05:04:45.236Z,1019.7
2022-09-07T05:10:35.996Z,1019.7
2022-09-07T05:16:17.540Z,1019.6
2022-09-07T05:32:58.666Z,1019.8
2022-09-07T06:06:22.301Z,1019.7
2022-09-07T06:11:42.388Z,1019.8
2022-09-07T06:23:02.648Z,1019.8
2022-09-07T06:39:34.816Z,1019.7
2022-09-07T06:45:20.489Z,1019.6
2022-09-07T06:50:43.625Z,1019.6
2022-09-07T06:56:40.148Z,1019.5
2022-09-07T07:02:11.308Z,1019.6
2022-09-07T07:07:38.355Z,1019.5
2022-09-07T07:18:51.147Z,1019.2
2022-09-07T07:24:30.219Z,1019.1
2022-09-07T07:29:55.468Z,1018.8
2022-09-07T07:35:48.967Z,1018.6
2022-09-07T07:46:58.707Z,1018.6
2022-09-07T07:57:49.600Z,1018.3
2022-09-07T08:03:47.459Z,1018.5
2022-09-07T08:09:16.810Z,1018.3
2022-09-07T08:14:42.071Z,1017.9
2022-09-07T08:20:13.406Z,1017.8
2022-09-07T08:26:14.408Z,1018
2022-09-07T08:31:29.554Z,1017.9
2022-09-07T08:37:20.805Z,1018
2022-09-07T08:42:38.343Z,1017.8
2022-09-07T08:48:29.208Z,1017.9
2022-09-07T08:59:27.975Z,1017.7
2022-09-07T09:10:37.902Z,1017.2
2022-09-07T09:16:21.127Z,1016.9
2022-09-07T09:21:57.732Z,1017
2022-09-07T09:27:30.828Z,1016.9
2022-09-07T09:38:56.921Z,1016.7
2022-09-07T09:56:01.821Z,1016.5
2022-09-07T10:12:46.489Z,1016.1
2022-09-07T12:33:41.544Z,1013.9
2022-09-07T12:50:58.856Z,1013.7
2022-09-07T12:56:29.467Z,1013.4
2022-09-07T13:01:50.153Z,1013.3
2022-09-07T13:07:35.456Z,1013.2
2022-09-07T13:19:05.502Z,1013.3
2022-09-07T13:24:49.366Z,1013.2
2022-09-07T13:30:12.816Z,1013.2
2022-09-07T13:35:50.448Z,1013.1
2022-09-07T13:41:34.295Z,1013.1
2022-09-07T13:46:50.977Z,1012.9
2022-09-07T13:52:41.419Z,1013
2022-09-07T13:58:03.680Z,1013
2022-09-07T14:03:34.986Z,1012.8
2022-09-07T14:09:31.208Z,1012.8
2022-09-07T14:15:06.978Z,1013
2022-09-07T14:20:41.659Z,1013.1
2022-09-07T14:26:19.826Z,1012.9
2022-09-07T14:32:02.052Z,1012.8
2022-09-07T14:37:24.523Z,1012.7
2022-09-07T14:43:01.449Z,1012.6
2022-09-07T14:48:38.059Z,1012.4
2022-09-07T14:54:09.819Z,1012.6
2022-09-07T14:59:55.883Z,1012.5
2022-09-07T15:05:08.946Z,1012.4
2022-09-07T15:16:21.087Z,1012.6
2022-09-07T15:33:13.419Z,1013.7
2022-09-07T15:39:13.743Z,1013.8
2022-09-07T16:13:10.367Z,1013.3
2022-09-07T16:18:21.500Z,1013.9
2022-09-07T16:23:56.456Z,1013.9
2022-09-07T16:29:18.778Z,1013.2
2022-09-07T16:34:51.308Z,1013.3
2022-09-07T16:40:35.307Z,1013.4
2022-09-07T16:46:07.980Z,1014
2022-09-07T16:51:44.457Z,1014.2
2022-09-07T17:02:56.518Z,1014.3
2022-09-07T17:08:22.293Z,1014.1
2022-09-07T17:14:04.171Z,1014.3
2022-09-07T17:19:45.108Z,1013.8
2022-09-07T17:25:04.861Z,1013.7
2022-09-07T17:30:39.345Z,1013.6
2022-09-07T17:47:35.148Z,1013.4
2022-09-07T17:53:10.131Z,1013.3
2022-09-07T18:04:34.246Z,1013.4
2022-09-07T18:10:01.782Z,1013.5
2022-09-07T18:26:34.963Z,1013.8
2022-09-07T18:37:58.835Z,1013.8
